Terminal Aerodrome Forecast
Issued by NWS Wilmington, NC

Home | Current Version | Previous Version | Text Only | Print | Product List | Glossary On
Versions: 1 2 3 4 5 6 7 8 9 10 11 12 13 14 15 16 17
000
FTUS42 KILM 200200 AAA
TAFLBT
TAF AMD
KLBT 200220Z 2002/2024 03016G24KT 3SM -RA BR BKN008 OVC012
     FM200400 04014G25KT 5SM -RA OVC008
     FM200800 03015G25KT P6SM VCSH SCT007 BKN010 OVC025
     FM201500 03017G22KT P6SM BKN025 OVC050=

USA.gov is the U.S. government's official web portal to all federal, state and local government web resources and services.